Time;durP1;ratioP1;P1;durP2;ratioP2;P2;SDS_P1;SDS_P2;PMS_P1;PMS_P2;Temp;Humidity;BMP_temperature;BMP_pressure;BME280_temperature;BME280_humidity;BME280_pressure;Samples;Min_cycle;Max_cycle;Signal;HPM_P1;HPM_P2
2023/07/22 00:00:29;;;;;;;23.13;18.83;;;;;;;;;;5078781;28;20444;-62
2023/07/22 00:02:55;;;;;;;20.97;18.37;;;;;;;;;;5079029;28;21047;-62
2023/07/22 00:05:23;;;;;;;25.30;18.63;;;;;;;;;;5077718;28;20495;-62
2023/07/22 00:07:50;;;;;;;22.60;18.40;;;;;;;;;;5078551;28;20443;-62
2023/07/22 00:10:16;;;;;;;19.20;17.20;;;;;;;;;;5078722;28;20523;-62
2023/07/22 00:12:43;;;;;;;25.73;18.97;;;;;;;;;;5079036;28;20527;-62
2023/07/22 00:15:11;;;;;;;21.37;16.80;;;;;;;;;;5078360;28;20755;-62
2023/07/22 00:17:40;;;;;;;21.03;18.53;;;;;;;;;;5078315;28;20459;-62
2023/07/22 00:20:10;;;;;;;29.23;20.20;;;;;;;;;;5079079;28;20462;-62
2023/07/22 00:22:37;;;;;;;24.17;19.50;;;;;;;;;;5078969;28;20440;-62
2023/07/22 00:25:04;;;;;;;23.33;18.53;;;;;;;;;;5078554;28;20484;-61
2023/07/22 00:27:30;;;;;;;23.70;18.87;;;;;;;;;;5083003;28;20450;-62
2023/07/22 00:29:56;;;;;;;20.73;18.43;;;;;;;;;;5082677;28;20507;-62
2023/07/22 00:32:23;;;;;;;27.40;18.10;;;;;;;;;;5082286;28;20487;-61
2023/07/22 00:34:50;;;;;;;27.97;19.30;;;;;;;;;;5082321;28;20470;-62
2023/07/22 00:37:17;;;;;;;24.47;17.27;;;;;;;;;;5082198;28;20459;-62
2023/07/22 00:39:44;;;;;;;21.00;17.87;;;;;;;;;;5082633;28;20467;-62
2023/07/22 00:42:11;;;;;;;22.83;17.27;;;;;;;;;;5082554;28;20471;-61
2023/07/22 00:44:37;;;;;;;21.37;16.40;;;;;;;;;;5082136;28;20555;-61
2023/07/22 00:47:04;;;;;;;21.50;17.30;;;;;;;;;;5081992;28;20451;-61
2023/07/22 00:49:31;;;;;;;20.03;16.13;;;;;;;;;;5082770;28;20777;-62
2023/07/22 00:52:01;;;;;;;29.27;17.93;;;;;;;;;;5082250;28;20497;-61
2023/07/22 00:54:28;;;;;;;20.17;15.67;;;;;;;;;;5082274;28;20456;-62
2023/07/22 00:56:54;;;;;;;25.20;15.90;;;;;;;;;;5082324;28;20448;-62
2023/07/22 00:59:21;;;;;;;21.40;15.53;;;;;;;;;;5082271;28;21027;-62
2023/07/22 01:01:48;;;;;;;23.47;14.60;;;;;;;;;;5081460;28;20481;-62
2023/07/22 01:04:15;;;;;;;19.77;15.00;;;;;;;;;;5081733;28;20567;-62
2023/07/22 01:06:43;;;;;;;21.10;16.13;;;;;;;;;;5077577;28;20473;-62
2023/07/22 01:09:11;;;;;;;19.20;14.83;;;;;;;;;;5082524;28;20452;-62
2023/07/22 01:11:37;;;;;;;20.10;16.10;;;;;;;;;;5082023;28;21026;-62
2023/07/22 01:14:04;;;;;;;19.50;15.60;;;;;;;;;;5081537;28;20524;-61
2023/07/22 01:16:30;;;;;;;20.10;16.10;;;;;;;;;;5081212;28;20487;-62
2023/07/22 01:18:57;;;;;;;21.03;16.37;;;;;;;;;;5082028;28;20448;-62
2023/07/22 01:21:25;;;;;;;18.87;15.17;;;;;;;;;;5081332;28;20481;-62
2023/07/22 01:23:53;;;;;;;21.73;16.40;;;;;;;;;;5081048;28;20491;-62
2023/07/22 01:26:20;;;;;;;20.90;14.83;;;;;;;;;;5081665;28;20451;-61
2023/07/22 01:28:46;;;;;;;16.07;14.27;;;;;;;;;;5081904;28;20523;-62
2023/07/22 01:31:12;;;;;;;17.40;12.33;;;;;;;;;;5080843;28;21018;-62
2023/07/22 01:33:39;;;;;;;18.33;14.00;;;;;;;;;;5081301;28;21216;-62
2023/07/22 01:36:05;;;;;;;20.10;14.07;;;;;;;;;;5079781;28;21204;-62
2023/07/22 01:38:32;;;;;;;20.30;15.40;;;;;;;;;;5081882;28;20475;-62
2023/07/22 01:40:59;;;;;;;17.30;13.20;;;;;;;;;;5081331;28;21012;-62
2023/07/22 01:43:26;;;;;;;16.23;13.47;;;;;;;;;;5080742;28;20480;-62
2023/07/22 01:45:53;;;;;;;23.20;14.40;;;;;;;;;;5081205;28;20455;-62
2023/07/22 01:48:19;;;;;;;20.93;12.77;;;;;;;;;;5081177;28;20455;-62
2023/07/22 01:50:47;;;;;;;17.20;13.50;;;;;;;;;;5080980;28;20482;-62
2023/07/22 01:53:13;;;;;;;21.77;13.90;;;;;;;;;;5080946;28;20885;-62
2023/07/22 01:55:40;;;;;;;18.90;13.40;;;;;;;;;;5080989;28;20456;-62
2023/07/22 01:58:08;;;;;;;18.50;14.40;;;;;;;;;;5081064;28;20523;-62
2023/07/22 02:00:34;;;;;;;24.70;12.97;;;;;;;;;;5080506;28;20527;-61
2023/07/22 02:03:01;;;;;;;16.37;13.60;;;;;;;;;;5080856;28;20487;-62
2023/07/22 02:05:29;;;;;;;20.63;13.97;;;;;;;;;;5079063;28;20451;-62
2023/07/22 02:07:56;;;;;;;18.97;12.93;;;;;;;;;;5080935;28;20455;-62
2023/07/22 02:10:22;;;;;;;18.80;14.50;;;;;;;;;;5080676;28;20512;-61
2023/07/22 02:12:49;;;;;;;21.13;12.70;;;;;;;;;;5081019;28;20531;-61
2023/07/22 02:15:17;;;;;;;19.83;13.90;;;;;;;;;;5080155;28;20480;-62
2023/07/22 02:17:43;;;;;;;18.10;13.07;;;;;;;;;;5080323;28;20452;-61
2023/07/22 02:20:09;;;;;;;22.30;12.90;;;;;;;;;;5080576;28;20462;-62
2023/07/22 02:22:36;;;;;;;16.27;12.60;;;;;;;;;;5080927;28;20452;-61
2023/07/22 02:25:03;;;;;;;19.10;13.27;;;;;;;;;;5080309;28;20574;-61
2023/07/22 02:27:29;;;;;;;17.20;12.30;;;;;;;;;;5080201;28;20451;-61
2023/07/22 02:29:55;;;;;;;22.80;13.90;;;;;;;;;;5080611;28;20512;-62
2023/07/22 02:32:23;;;;;;;19.03;12.57;;;;;;;;;;5080074;28;20452;-62
2023/07/22 02:34:50;;;;;;;18.87;14.10;;;;;;;;;;5080059;28;20523;-61
2023/07/22 02:37:16;;;;;;;20.20;14.30;;;;;;;;;;5079842;28;20512;-62
2023/07/22 02:39:42;;;;;;;19.93;12.93;;;;;;;;;;5080749;28;20483;-62
2023/07/22 02:42:09;;;;;;;19.27;14.60;;;;;;;;;;5080350;28;20999;-61
2023/07/22 02:44:35;;;;;;;21.37;12.90;;;;;;;;;;5079676;28;20514;-61
2023/07/22 02:47:03;;;;;;;17.60;14.37;;;;;;;;;;5079735;28;20478;-61
2023/07/22 02:49:30;;;;;;;21.67;14.23;;;;;;;;;;5079433;28;20511;-61
2023/07/22 02:51:57;;;;;;;21.03;15.20;;;;;;;;;;5079801;28;21011;-61
2023/07/22 02:54:23;;;;;;;23.53;13.53;;;;;;;;;;5080047;28;20452;-61
2023/07/22 02:56:49;;;;;;;18.80;13.90;;;;;;;;;;5079927;28;20459;-61
2023/07/22 02:59:16;;;;;;;16.97;13.20;;;;;;;;;;5079792;28;20448;-62
2023/07/22 03:01:43;;;;;;;17.70;13.30;;;;;;;;;;5074342;28;20519;-62
2023/07/22 03:04:09;;;;;;;19.17;14.17;;;;;;;;;;5079852;28;21008;-62
2023/07/22 03:06:37;;;;;;;17.77;13.80;;;;;;;;;;5079001;28;20498;-62
2023/07/22 03:09:04;;;;;;;17.10;13.03;;;;;;;;;;5079947;28;20799;-61
2023/07/22 03:11:31;;;;;;;20.07;13.70;;;;;;;;;;5079445;28;20459;-62
2023/07/22 03:13:57;;;;;;;24.87;14.40;;;;;;;;;;5079304;28;20826;-61
2023/07/22 03:16:24;;;;;;;18.33;12.77;;;;;;;;;;5076826;28;20512;-62
2023/07/22 03:18:50;;;;;;;22.00;13.23;;;;;;;;;;5079910;28;20797;-62
2023/07/22 03:21:18;;;;;;;22.60;13.30;;;;;;;;;;5079400;28;20487;-61
2023/07/22 03:23:45;;;;;;;18.93;13.87;;;;;;;;;;5079435;28;20509;-61
2023/07/22 03:26:12;;;;;;;18.57;13.43;;;;;;;;;;5079420;28;20534;-61
2023/07/22 03:28:39;;;;;;;17.80;12.20;;;;;;;;;;5079573;28;20479;-62
2023/07/22 03:31:05;;;;;;;17.40;12.90;;;;;;;;;;5078814;28;20443;-62
2023/07/22 03:33:31;;;;;;;20.50;14.80;;;;;;;;;;5079268;28;20454;-62
2023/07/22 03:35:58;;;;;;;17.30;12.70;;;;;;;;;;5078519;28;20555;-62
2023/07/22 03:38:24;;;;;;;17.20;12.30;;;;;;;;;;5079583;28;20475;-62
2023/07/22 03:40:53;;;;;;;16.20;13.43;;;;;;;;;;5079334;28;20453;-62
2023/07/22 03:43:20;;;;;;;17.77;13.40;;;;;;;;;;5079177;28;20486;-62
2023/07/22 03:45:46;;;;;;;22.83;14.40;;;;;;;;;;5078668;28;20527;-62
2023/07/22 03:48:13;;;;;;;18.10;13.80;;;;;;;;;;5079547;28;20732;-62
2023/07/22 03:50:39;;;;;;;19.30;12.70;;;;;;;;;;5079386;28;20850;-62
2023/07/22 03:53:05;;;;;;;14.20;11.70;;;;;;;;;;5079493;28;20467;-62
2023/07/22 03:55:32;;;;;;;18.40;12.87;;;;;;;;;;5078898;28;20573;-62
2023/07/22 03:57:59;;;;;;;16.57;12.60;;;;;;;;;;5079550;28;20468;-62
2023/07/22 04:00:26;;;;;;;18.57;12.30;;;;;;;;;;5081420;28;20452;-62
2023/07/22 04:02:52;;;;;;;18.73;13.03;;;;;;;;;;5083081;28;20527;-62
2023/07/22 04:05:19;;;;;;;19.00;13.43;;;;;;;;;;5073387;28;20527;-62
2023/07/22 04:07:45;;;;;;;17.10;11.80;;;;;;;;;;5083249;28;20444;-62
2023/07/22 04:10:12;;;;;;;18.90;12.93;;;;;;;;;;5082963;28;20451;-62
2023/07/22 04:12:38;;;;;;;17.03;12.13;;;;;;;;;;5083212;28;20917;-62
2023/07/22 04:15:07;;;;;;;14.40;10.60;;;;;;;;;;5074997;28;20527;-62
2023/07/22 04:17:33;;;;;;;17.97;10.90;;;;;;;;;;5082803;28;20515;-62
2023/07/22 04:19:59;;;;;;;14.80;10.77;;;;;;;;;;5083075;28;20523;-61
2023/07/22 04:22:26;;;;;;;17.97;12.80;;;;;;;;;;5082853;28;20479;-62
2023/07/22 04:24:52;;;;;;;15.47;11.83;;;;;;;;;;5082777;28;20921;-62
2023/07/22 04:27:19;;;;;;;15.77;10.90;;;;;;;;;;5083045;28;20475;-62
2023/07/22 04:29:46;;;;;;;17.70;12.33;;;;;;;;;;5083029;28;20511;-62
2023/07/22 04:32:13;;;;;;;15.10;11.67;;;;;;;;;;5082309;28;20562;-62
2023/07/22 04:34:40;;;;;;;15.77;13.20;;;;;;;;;;5082371;28;20486;-62
2023/07/22 04:37:06;;;;;;;16.10;13.40;;;;;;;;;;5082117;28;21031;-62
2023/07/22 04:39:34;;;;;;;19.20;14.33;;;;;;;;;;5082719;28;20508;-62
2023/07/22 04:42:00;;;;;;;18.37;14.57;;;;;;;;;;5082679;28;20458;-62
2023/07/22 04:44:26;;;;;;;22.03;16.40;;;;;;;;;;5082304;28;20554;-62
2023/07/22 04:46:53;;;;;;;22.60;17.57;;;;;;;;;;5081982;28;20483;-62
2023/07/22 04:49:21;;;;;;;21.40;16.63;;;;;;;;;;5082691;28;20457;-62
2023/07/22 04:51:48;;;;;;;24.20;16.97;;;;;;;;;;5082372;28;20482;-62
2023/07/22 04:54:15;;;;;;;21.50;17.20;;;;;;;;;;5082497;28;20864;-61
2023/07/22 04:56:41;;;;;;;24.03;17.30;;;;;;;;;;5082542;28;20459;-61
2023/07/22 04:59:08;;;;;;;25.60;18.83;;;;;;;;;;5082418;28;20483;-62
2023/07/22 05:01:34;;;;;;;21.20;16.83;;;;;;;;;;5081078;28;20980;-61
2023/07/22 05:04:01;;;;;;;23.40;16.80;;;;;;;;;;5081977;28;20535;-62
2023/07/22 05:06:29;;;;;;;26.30;17.73;;;;;;;;;;5079389;28;20467;-61
2023/07/22 05:08:55;;;;;;;26.60;18.17;;;;;;;;;;5077112;28;20493;-61
2023/07/22 05:11:23;;;;;;;26.00;18.37;;;;;;;;;;5081051;28;20931;-61
2023/07/22 05:13:49;;;;;;;24.80;19.33;;;;;;;;;;5081883;28;20450;-62
2023/07/22 05:16:16;;;;;;;35.27;17.80;;;;;;;;;;5081551;28;20531;-62
2023/07/22 05:18:42;;;;;;;28.50;18.60;;;;;;;;;;5082239;28;20448;-62
2023/07/22 05:21:08;;;;;;;26.03;18.20;;;;;;;;;;5081963;28;20447;-62
2023/07/22 05:23:36;;;;;;;22.80;17.90;;;;;;;;;;5081825;28;20502;-62
2023/07/22 05:26:03;;;;;;;22.33;17.10;;;;;;;;;;5081405;28;20479;-62
2023/07/22 05:28:29;;;;;;;25.30;17.90;;;;;;;;;;5081561;28;20854;-62
2023/07/22 05:30:56;;;;;;;23.87;18.07;;;;;;;;;;5081024;28;20511;-62
2023/07/22 05:33:22;;;;;;;25.80;18.70;;;;;;;;;;5081632;28;20478;-62
2023/07/22 05:35:49;;;;;;;23.07;17.10;;;;;;;;;;5080518;28;20777;-62
2023/07/22 05:38:15;;;;;;;27.60;16.33;;;;;;;;;;5081192;28;20490;-62
2023/07/22 05:40:43;;;;;;;23.83;16.00;;;;;;;;;;5081296;28;20476;-61
2023/07/22 05:43:09;;;;;;;28.27;19.70;;;;;;;;;;5081761;28;20507;-61
2023/07/22 05:45:36;;;;;;;28.03;17.67;;;;;;;;;;5080860;28;20507;-61
2023/07/22 05:48:02;;;;;;;21.90;16.23;;;;;;;;;;5080931;28;20444;-62
2023/07/22 05:50:28;;;;;;;25.50;16.90;;;;;;;;;;5081558;28;20487;-61
2023/07/22 05:52:55;;;;;;;22.37;15.60;;;;;;;;;;5081271;28;20444;-61
2023/07/22 05:55:21;;;;;;;24.40;16.77;;;;;;;;;;5081274;28;20547;-62
2023/07/22 05:57:49;;;;;;;21.43;16.37;;;;;;;;;;5081515;28;20543;-62
2023/07/22 06:00:15;;;;;;;32.00;16.33;;;;;;;;;;5071456;28;20471;-62
2023/07/22 06:02:42;;;;;;;23.50;16.40;;;;;;;;;;5074752;28;20531;-62
2023/07/22 06:05:08;;;;;;;20.40;15.67;;;;;;;;;;5080531;28;20523;-62
2023/07/22 06:07:35;;;;;;;28.20;17.20;;;;;;;;;;5079270;28;20460;-62
2023/07/22 06:10:01;;;;;;;19.57;15.93;;;;;;;;;;5080790;28;20443;-62
2023/07/22 06:12:28;;;;;;;22.03;15.43;;;;;;;;;;5080928;28;20443;-62
2023/07/22 06:14:55;;;;;;;23.17;16.33;;;;;;;;;;5080389;28;20743;-61
2023/07/22 06:17:22;;;;;;;23.93;16.00;;;;;;;;;;5079772;28;20476;-62
2023/07/22 06:19:48;;;;;;;17.47;14.43;;;;;;;;;;5080732;28;20829;-62
2023/07/22 06:22:15;;;;;;;23.10;15.13;;;;;;;;;;5080681;28;20443;-62
2023/07/22 06:24:41;;;;;;;18.20;13.57;;;;;;;;;;5080510;28;20543;-62
2023/07/22 06:27:07;;;;;;;17.10;12.83;;;;;;;;;;5080818;28;20455;-62
2023/07/22 06:29:34;;;;;;;16.53;13.37;;;;;;;;;;5080681;28;20582;-62
2023/07/22 06:32:01;;;;;;;16.90;12.97;;;;;;;;;;5079792;28;20485;-62
2023/07/22 06:34:28;;;;;;;17.80;12.13;;;;;;;;;;5080638;28;20456;-63
2023/07/22 06:36:54;;;;;;;14.30;12.23;;;;;;;;;;5079237;28;20622;-62
2023/07/22 06:39:21;;;;;;;18.07;13.37;;;;;;;;;;5080505;28;20507;-63
2023/07/22 06:41:47;;;;;;;14.40;12.33;;;;;;;;;;5079965;28;20535;-62
2023/07/22 06:44:13;;;;;;;16.03;13.00;;;;;;;;;;5079815;28;20452;-63
2023/07/22 06:46:40;;;;;;;14.33;12.83;;;;;;;;;;5079636;28;20559;-63
2023/07/22 06:49:08;;;;;;;15.23;11.60;;;;;;;;;;5080554;28;20443;-62
2023/07/22 06:51:34;;;;;;;14.97;12.87;;;;;;;;;;5079994;28;20451;-63
2023/07/22 06:54:01;;;;;;;15.93;12.83;;;;;;;;;;5079655;28;20471;-63
2023/07/22 06:56:27;;;;;;;14.47;12.13;;;;;;;;;;5079922;28;20448;-63
2023/07/22 06:58:53;;;;;;;15.50;11.90;;;;;;;;;;5078799;28;21008;-63
2023/07/22 07:01:20;;;;;;;14.03;12.53;;;;;;;;;;5079526;28;20459;-62
2023/07/22 07:03:46;;;;;;;13.87;12.40;;;;;;;;;;5079955;28;20914;-63
2023/07/22 07:06:14;;;;;;;13.67;11.70;;;;;;;;;;5078317;28;20982;-62
2023/07/22 07:08:40;;;;;;;15.77;12.67;;;;;;;;;;5079826;28;20459;-62
2023/07/22 07:11:07;;;;;;;18.03;12.50;;;;;;;;;;5079867;28;20513;-62
2023/07/22 07:13:33;;;;;;;15.63;13.70;;;;;;;;;;5079866;28;20473;-62
2023/07/22 07:16:19;;;;;;;15.53;13.00;;;;;;;;;;5078992;28;20483;-62
2023/07/22 07:18:46;;;;;;;15.40;12.50;;;;;;;;;;5074678;28;20957;-63
2023/07/22 07:21:14;;;;;;;13.80;12.33;;;;;;;;;;5079594;28;20479;-62
2023/07/22 07:23:40;;;;;;;13.00;11.37;;;;;;;;;;5079224;28;21041;-63
2023/07/22 07:26:07;;;;;;;16.33;12.33;;;;;;;;;;5079103;28;20480;-63
2023/07/22 07:28:33;;;;;;;15.53;13.23;;;;;;;;;;5079560;28;20478;-63
2023/07/22 07:31:00;;;;;;;12.20;10.87;;;;;;;;;;5078805;28;20456;-63
2023/07/22 07:33:26;;;;;;;13.97;11.63;;;;;;;;;;5079389;28;20523;-63
2023/07/22 07:35:52;;;;;;;12.17;10.97;;;;;;;;;;5077991;28;20608;-63
2023/07/22 07:38:20;;;;;;;18.50;10.57;;;;;;;;;;5079718;28;20448;-63
2023/07/22 07:40:47;;;;;;;14.23;11.27;;;;;;;;;;5078231;28;20455;-63
2023/07/22 07:43:13;;;;;;;13.00;11.07;;;;;;;;;;5073253;28;20475;-63
2023/07/22 07:45:40;;;;;;;12.87;11.50;;;;;;;;;;5077856;28;20519;-63
2023/07/22 07:48:06;;;;;;;14.60;11.97;;;;;;;;;;5078598;28;20443;-62
2023/07/22 07:50:33;;;;;;;16.30;13.00;;;;;;;;;;5078104;28;20974;-63
2023/07/22 07:52:59;;;;;;;13.30;11.70;;;;;;;;;;5078633;28;20456;-63
2023/07/22 07:55:27;;;;;;;14.50;11.40;;;;;;;;;;5077729;28;20447;-62
2023/07/22 07:57:54;;;;;;;13.33;11.63;;;;;;;;;;5078228;28;20535;-62
2023/07/22 08:00:21;;;;;;;13.77;11.83;;;;;;;;;;5078737;28;20976;-63
2023/07/22 08:02:47;;;;;;;13.47;11.13;;;;;;;;;;5077979;28;20456;-63
2023/07/22 08:05:14;;;;;;;13.90;11.50;;;;;;;;;;5074709;28;20484;-62
2023/07/22 08:07:40;;;;;;;16.13;12.43;;;;;;;;;;5072914;28;20535;-62
2023/07/22 08:10:07;;;;;;;13.53;11.80;;;;;;;;;;5078632;28;20535;-63
2023/07/22 08:12:35;;;;;;;13.20;11.80;;;;;;;;;;5077821;28;20983;-63
2023/07/22 08:15:02;;;;;;;15.00;11.17;;;;;;;;;;5075147;28;20487;-63
2023/07/22 08:17:28;;;;;;;15.73;12.50;;;;;;;;;;5078031;28;20456;-63
2023/07/22 08:19:55;;;;;;;15.33;12.30;;;;;;;;;;5077909;28;20718;-63
2023/07/22 08:22:21;;;;;;;15.57;11.93;;;;;;;;;;5072709;28;20460;-62
2023/07/22 08:24:47;;;;;;;15.20;11.93;;;;;;;;;;5075225;28;20480;-63
2023/07/22 08:27:14;;;;;;;17.73;13.73;;;;;;;;;;5073302;28;20452;-62
2023/07/22 08:29:41;;;;;;;18.63;12.43;;;;;;;;;;5078299;28;20484;-62
2023/07/22 08:32:08;;;;;;;17.60;14.00;;;;;;;;;;5077718;28;20547;-63
2023/07/22 08:34:34;;;;;;;15.20;11.67;;;;;;;;;;5077590;28;20506;-63
2023/07/22 08:37:01;;;;;;;15.97;11.83;;;;;;;;;;5077340;28;20491;-62
2023/07/22 08:39:27;;;;;;;12.97;11.17;;;;;;;;;;5070336;28;20457;-63
2023/07/22 08:41:55;;;;;;;17.67;12.70;;;;;;;;;;5074043;28;20448;-63
2023/07/22 08:44:21;;;;;;;14.43;11.43;;;;;;;;;;5068742;28;20475;-63
2023/07/22 08:46:50;;;;;;;14.70;11.30;;;;;;;;;;5078149;28;20566;-63
2023/07/22 08:49:17;;;;;;;12.37;11.07;;;;;;;;;;5081683;28;20444;-63
2023/07/22 08:51:45;;;;;;;12.07;10.77;;;;;;;;;;5076618;28;20459;-63
2023/07/22 08:54:11;;;;;;;15.67;12.43;;;;;;;;;;5081525;28;20483;-63
2023/07/22 08:56:38;;;;;;;13.93;12.33;;;;;;;;;;5073497;28;20667;-63
2023/07/22 08:59:06;;;;;;;10.67;9.33;;;;;;;;;;5077762;28;20478;-63
2023/07/22 09:01:32;;;;;;;11.67;10.30;;;;;;;;;;5081505;28;20432;-63
2023/07/22 09:04:01;;;;;;;12.47;10.17;;;;;;;;;;5081539;28;20482;-63
2023/07/22 09:06:27;;;;;;;11.03;9.60;;;;;;;;;;5079823;28;20488;-64
2023/07/22 09:08:54;;;;;;;14.23;10.23;;;;;;;;;;5075580;28;20467;-63
2023/07/22 09:11:21;;;;;;;11.07;9.97;;;;;;;;;;5076077;28;20516;-63
2023/07/22 09:13:48;;;;;;;15.33;10.33;;;;;;;;;;5074721;28;20436;-63
2023/07/22 09:16:14;;;;;;;12.00;9.97;;;;;;;;;;5081071;28;20819;-63
2023/07/22 09:18:41;;;;;;;12.53;10.43;;;;;;;;;;5081421;28;20472;-63
2023/07/22 09:21:08;;;;;;;12.20;10.10;;;;;;;;;;5080864;28;20689;-63
2023/07/22 09:23:35;;;;;;;14.50;11.33;;;;;;;;;;5074653;28;20969;-63
2023/07/22 09:26:12;;;;;;;14.43;9.93;;;;;;;;;;5073783;28;20574;-63
2023/07/22 09:28:51;;;;;;;15.30;11.13;;;;;;;;;;5074262;28;20487;-63
2023/07/22 09:31:18;;;;;;;15.63;11.13;;;;;;;;;;5071617;28;20491;-63
2023/07/22 09:33:44;;;;;;;14.10;11.40;;;;;;;;;;5068451;28;20755;-63
2023/07/22 09:36:12;;;;;;;16.53;12.13;;;;;;;;;;5074478;28;20558;-63
2023/07/22 09:38:39;;;;;;;14.93;11.00;;;;;;;;;;5079949;28;20446;-63
2023/07/22 09:41:05;;;;;;;12.77;9.50;;;;;;;;;;5080536;28;20456;-63
2023/07/22 09:43:32;;;;;;;18.10;11.63;;;;;;;;;;5076945;28;20511;-63
2023/07/22 09:46:06;;;;;;;16.97;12.43;;;;;;;;;;5066540;28;20515;-63
2023/07/22 09:48:40;;;;;;;14.60;11.97;;;;;;;;;;5077108;28;20450;-63
2023/07/22 09:51:06;;;;;;;17.47;12.63;;;;;;;;;;5080086;28;20440;-63
2023/07/22 09:53:34;;;;;;;15.43;11.60;;;;;;;;;;5069432;28;20547;-63
2023/07/22 09:56:04;;;;;;;12.67;10.10;;;;;;;;;;5073730;28;20590;-63
2023/07/22 09:58:31;;;;;;;13.40;10.87;;;;;;;;;;5072632;28;20457;-64
2023/07/22 10:00:58;;;;;;;12.97;10.20;;;;;;;;;;5069020;28;20920;-63
2023/07/22 10:03:27;;;;;;;17.43;10.70;;;;;;;;;;5068472;28;20460;-62
2023/07/22 10:05:54;;;;;;;10.80;9.70;;;;;;;;;;5078852;28;20480;-63
2023/07/22 10:08:22;;;;;;;10.00;8.80;;;;;;;;;;5080769;28;20451;-63
2023/07/22 10:10:52;;;;;;;10.17;8.97;;;;;;;;;;5079355;28;20486;-63
2023/07/22 10:13:18;;;;;;;11.10;8.70;;;;;;;;;;5080006;28;20474;-63
2023/07/22 10:15:46;;;;;;;12.10;8.73;;;;;;;;;;5079503;28;20451;-63
2023/07/22 10:18:12;;;;;;;9.73;8.73;;;;;;;;;;5079354;28;20456;-63
2023/07/22 10:20:39;;;;;;;9.20;8.30;;;;;;;;;;5080234;28;20523;-63
2023/07/22 10:23:07;;;;;;;11.60;7.70;;;;;;;;;;5079911;28;20480;-63
2023/07/22 10:25:34;;;;;;;12.90;9.07;;;;;;;;;;5079433;28;20456;-62
2023/07/22 10:28:01;;;;;;;11.13;8.27;;;;;;;;;;5079984;28;20491;-62
2023/07/22 10:30:28;;;;;;;8.63;7.50;;;;;;;;;;5079559;28;21036;-62
2023/07/22 10:32:55;;;;;;;9.77;8.47;;;;;;;;;;5078239;28;20452;-62
2023/07/22 10:35:23;;;;;;;9.80;8.80;;;;;;;;;;5075384;28;20859;-62
2023/07/22 10:37:50;;;;;;;8.90;8.00;;;;;;;;;;5078964;28;20479;-62
2023/07/22 10:40:20;;;;;;;8.13;7.33;;;;;;;;;;5079174;28;20508;-62
2023/07/22 10:42:57;;;;;;;9.20;7.27;;;;;;;;;;5079330;28;20771;-62
2023/07/22 10:45:26;;;;;;;8.50;6.93;;;;;;;;;;5076400;28;20528;-62
2023/07/22 10:48:01;;;;;;;8.57;7.23;;;;;;;;;;5075872;28;20487;-62
2023/07/22 10:50:38;;;;;;;9.80;8.00;;;;;;;;;;5072349;28;20478;-63
2023/07/22 10:53:05;;;;;;;9.93;7.57;;;;;;;;;;5075644;28;20471;-62
2023/07/22 10:55:31;;;;;;;11.73;8.33;;;;;;;;;;5078700;28;20447;-62
2023/07/22 10:58:03;;;;;;;8.80;7.30;;;;;;;;;;5079482;28;20449;-62
2023/07/22 11:00:31;;;;;;;9.90;7.80;;;;;;;;;;5080161;28;20444;-62
2023/07/22 11:03:18;;;;;;;9.23;7.60;;;;;;;;;;5078115;28;20459;-62
2023/07/22 11:05:52;;;;;;;11.27;8.40;;;;;;;;;;5075208;28;20749;-61
2023/07/22 11:08:33;;;;;;;10.20;7.30;;;;;;;;;;5079701;28;20443;-62
2023/07/22 11:11:00;;;;;;;8.63;7.03;;;;;;;;;;5077884;28;20506;-62
2023/07/22 11:13:27;;;;;;;9.57;8.57;;;;;;;;;;5079382;28;20895;-62
2023/07/22 11:15:58;;;;;;;8.87;7.97;;;;;;;;;;5078271;28;21029;-62
2023/07/22 11:18:36;;;;;;;8.33;7.13;;;;;;;;;;5078493;28;20527;-62
2023/07/22 11:21:02;;;;;;;9.67;8.30;;;;;;;;;;5079631;28;20447;-62
2023/07/22 11:23:28;;;;;;;8.90;7.10;;;;;;;;;;5078927;28;20793;-62
2023/07/22 11:25:55;;;;;;;9.40;7.20;;;;;;;;;;5078198;28;20484;-62
2023/07/22 11:28:22;;;;;;;8.70;7.60;;;;;;;;;;5075630;28;20453;-62
2023/07/22 11:30:48;;;;;;;8.40;7.17;;;;;;;;;;5077852;28;20472;-62
2023/07/22 11:33:16;;;;;;;7.30;6.27;;;;;;;;;;5077699;28;20591;-61
2023/07/22 11:35:43;;;;;;;9.13;7.13;;;;;;;;;;5078147;28;20579;-61
2023/07/22 11:38:12;;;;;;;8.83;7.93;;;;;;;;;;5078834;28;20452;-62
2023/07/22 11:40:39;;;;;;;8.90;7.60;;;;;;;;;;5070441;28;20452;-62
2023/07/22 11:43:05;;;;;;;10.33;7.70;;;;;;;;;;5077176;28;20513;-62
2023/07/22 11:45:32;;;;;;;9.67;7.47;;;;;;;;;;5078711;28;20476;-62
2023/07/22 11:47:58;;;;;;;9.67;7.20;;;;;;;;;;5071608;28;20499;-61
2023/07/22 11:50:33;;;;;;;7.83;6.23;;;;;;;;;;5079184;28;20448;-62
2023/07/22 11:52:59;;;;;;;8.90;7.60;;;;;;;;;;5078698;28;20471;-62
2023/07/22 11:55:26;;;;;;;8.43;7.50;;;;;;;;;;5078449;28;20480;-62
2023/07/22 11:57:53;;;;;;;7.77;6.93;;;;;;;;;;5078823;28;20487;-62
2023/07/22 12:00:19;;;;;;;8.23;6.53;;;;;;;;;;5079050;28;20448;-62
2023/07/22 12:02:46;;;;;;;8.30;7.50;;;;;;;;;;5077866;28;20488;-62
2023/07/22 12:05:13;;;;;;;7.20;6.23;;;;;;;;;;5078597;28;20460;-62
2023/07/22 12:07:41;;;;;;;7.13;6.00;;;;;;;;;;5078327;28;21158;-62
2023/07/22 12:10:09;;;;;;;8.00;7.20;;;;;;;;;;5078260;28;20474;-62
2023/07/22 12:12:36;;;;;;;7.50;6.80;;;;;;;;;;5079204;28;20904;-62
2023/07/22 12:15:04;;;;;;;9.20;7.00;;;;;;;;;;5078911;28;20992;-62
2023/07/22 12:17:31;;;;;;;8.07;7.27;;;;;;;;;;5078175;28;20637;-62
2023/07/22 12:19:57;;;;;;;8.30;6.70;;;;;;;;;;5079523;28;20538;-62
2023/07/22 12:22:24;;;;;;;9.17;6.00;;;;;;;;;;5083280;28;20494;-62
2023/07/22 12:24:52;;;;;;;6.67;5.97;;;;;;;;;;5082251;28;20479;-62
2023/07/22 12:27:19;;;;;;;7.23;6.53;;;;;;;;;;5082668;28;20487;-62
2023/07/22 12:29:45;;;;;;;6.87;6.27;;;;;;;;;;5082569;28;20463;-62
2023/07/22 12:32:11;;;;;;;6.13;5.53;;;;;;;;;;5081498;28;20519;-62
2023/07/22 12:34:38;;;;;;;8.87;6.40;;;;;;;;;;5082079;28;20456;-62
2023/07/22 12:37:04;;;;;;;8.63;5.63;;;;;;;;;;5081903;28;20523;-62
2023/07/22 12:39:31;;;;;;;6.60;5.60;;;;;;;;;;5081481;28;20479;-62
2023/07/22 12:41:58;;;;;;;8.20;5.53;;;;;;;;;;5082058;28;20564;-62
2023/07/22 12:44:25;;;;;;;8.33;5.73;;;;;;;;;;5082295;28;20468;-62
2023/07/22 12:46:53;;;;;;;6.90;5.17;;;;;;;;;;5081344;28;20582;-62
2023/07/22 12:49:19;;;;;;;6.53;5.13;;;;;;;;;;5082669;28;20985;-62
2023/07/22 12:51:46;;;;;;;4.70;4.30;;;;;;;;;;5082970;28;20486;-62
2023/07/22 12:54:12;;;;;;;8.60;4.80;;;;;;;;;;5082028;28;20483;-62
2023/07/22 12:56:38;;;;;;;8.73;5.70;;;;;;;;;;5082430;28;20450;-62
2023/07/22 12:59:06;;;;;;;5.50;4.73;;;;;;;;;;5082512;28;21100;-62
2023/07/22 13:01:32;;;;;;;5.17;4.67;;;;;;;;;;5080070;28;20518;-62
2023/07/22 13:03:59;;;;;;;8.20;5.50;;;;;;;;;;5082182;28;20526;-62
2023/07/22 13:06:26;;;;;;;5.20;4.70;;;;;;;;;;5080533;28;20630;-62
2023/07/22 13:08:52;;;;;;;6.47;4.80;;;;;;;;;;5081635;28;20452;-62
2023/07/22 13:11:18;;;;;;;7.20;5.10;;;;;;;;;;5081799;28;20479;-62
2023/07/22 13:13:45;;;;;;;5.73;5.13;;;;;;;;;;5081792;28;20475;-62
2023/07/22 13:16:13;;;;;;;7.07;5.70;;;;;;;;;;5081019;28;20475;-62
2023/07/22 13:18:39;;;;;;;5.50;5.00;;;;;;;;;;5081812;28;20455;-63
2023/07/22 13:21:05;;;;;;;8.77;5.33;;;;;;;;;;5082475;28;20448;-62
2023/07/22 13:23:32;;;;;;;6.80;4.67;;;;;;;;;;5080922;28;20887;-62
2023/07/22 13:25:58;;;;;;;6.40;5.40;;;;;;;;;;5078017;28;20459;-63
2023/07/22 13:28:24;;;;;;;6.07;5.23;;;;;;;;;;5081656;28;20567;-62
2023/07/22 13:30:51;;;;;;;5.60;4.97;;;;;;;;;;5080547;28;20935;-62
2023/07/22 13:33:19;;;;;;;9.17;4.80;;;;;;;;;;5080579;28;20535;-62
2023/07/22 13:35:45;;;;;;;7.53;5.40;;;;;;;;;;5080140;28;20497;-62
2023/07/22 13:38:12;;;;;;;7.33;5.20;;;;;;;;;;5081220;28;20478;-62
2023/07/22 13:40:38;;;;;;;5.50;5.00;;;;;;;;;;5080936;28;20881;-62
2023/07/22 13:43:04;;;;;;;6.67;4.50;;;;;;;;;;5080947;28;20763;-62
2023/07/22 13:45:31;;;;;;;6.13;4.83;;;;;;;;;;5080382;28;20512;-62
2023/07/22 13:47:57;;;;;;;4.63;4.13;;;;;;;;;;5080921;28;20483;-62
2023/07/22 13:50:25;;;;;;;6.30;5.13;;;;;;;;;;5073503;28;20809;-62
2023/07/22 13:52:51;;;;;;;6.60;4.97;;;;;;;;;;5080371;28;20489;-62
2023/07/22 13:55:18;;;;;;;5.73;4.77;;;;;;;;;;5081263;28;20506;-62
2023/07/22 13:57:44;;;;;;;4.47;3.90;;;;;;;;;;5080980;28;20482;-62
2023/07/22 14:00:11;;;;;;;4.70;4.20;;;;;;;;;;5081480;28;20479;-62
2023/07/22 14:02:38;;;;;;;6.80;4.80;;;;;;;;;;5080378;28;20779;-62
2023/07/22 14:05:05;;;;;;;5.03;4.20;;;;;;;;;;5081140;28;20464;-62
2023/07/22 14:07:32;;;;;;;9.37;4.60;;;;;;;;;;5078680;28;20895;-62
2023/07/22 14:09:59;;;;;;;4.80;4.40;;;;;;;;;;5081265;28;20447;-64
2023/07/22 14:12:25;;;;;;;7.37;4.40;;;;;;;;;;5081110;28;20478;-63
2023/07/22 14:14:51;;;;;;;5.40;4.70;;;;;;;;;;5080135;28;20468;-63
2023/07/22 14:17:18;;;;;;;4.20;3.80;;;;;;;;;;5080377;28;20448;-64
2023/07/22 14:19:44;;;;;;;4.47;4.03;;;;;;;;;;5081155;28;20528;-61
2023/07/22 14:22:11;;;;;;;5.27;4.70;;;;;;;;;;5081142;28;20479;-61